Time;durP1;ratioP1;P1;durP2;ratioP2;P2;SDS_P1;SDS_P2;PMS_P1;PMS_P2;Temp;Humidity;BMP_temperature;BMP_pressure;BME280_temperature;BME280_humidity;BME280_pressure;Samples;Min_cycle;Max_cycle;Signal;HPM_P1;HPM_P2
2024/01/06 00:02:13;;;;;;;4.18;0.90;;;;;;;18.86;39.29;100262.44;16111631;19;129725;-62
2024/01/06 00:07:35;;;;;;;6.38;0.90;;;;;;;18.83;38.92;100263.81;16114033;19;132082;-61
2024/01/06 00:12:57;;;;;;;4.68;0.82;;;;;;;18.79;38.86;100272.94;16111393;19;130237;-62
2024/01/06 00:18:19;;;;;;;4.00;0.70;;;;;;;18.76;39.37;100282.63;16117344;19;131470;-62
2024/01/06 00:23:41;;;;;;;6.32;1.38;;;;;;;18.73;38.94;100278.41;16111796;19;132433;-62
2024/01/06 00:29:03;;;;;;;4.55;0.98;;;;;;;18.70;39.10;100289.19;16111579;19;130319;-63
2024/01/06 00:34:25;;;;;;;4.13;0.90;;;;;;;18.67;39.28;100295.25;16108913;19;130954;-62
2024/01/06 00:39:47;;;;;;;6.13;0.90;;;;;;;18.65;39.14;100294.66;16111144;19;129399;-62
2024/01/06 00:45:09;;;;;;;4.57;0.80;;;;;;;18.62;39.47;100296.03;16112859;19;131895;-61
2024/01/06 00:50:31;;;;;;;6.00;1.08;;;;;;;18.59;39.05;100291.00;16114082;19;130270;-62
2024/01/06 00:55:53;;;;;;;3.97;0.80;;;;;;;18.57;39.05;100301.53;16106256;19;131772;-62
2024/01/06 01:01:15;;;;;;;3.63;0.77;;;;;;;18.54;39.09;100302.88;16110450;19;129736;-61
2024/01/06 01:06:37;;;;;;;3.67;0.85;;;;;;;18.52;39.49;100307.88;16108921;19;129569;-61
2024/01/06 01:11:59;;;;;;;4.85;0.98;;;;;;;18.51;39.12;100310.88;16102800;19;130826;-61
2024/01/06 01:17:22;;;;;;;5.38;0.82;;;;;;;18.49;39.08;100315.84;16106224;19;132692;-61
2024/01/06 01:22:44;;;;;;;3.17;0.73;;;;;;;18.48;39.48;100325.25;16112758;19;132512;-62
2024/01/06 01:28:06;;;;;;;3.75;0.80;;;;;;;18.45;39.36;100343.22;16105897;19;130686;-62
2024/01/06 01:33:28;;;;;;;4.60;1.02;;;;;;;18.44;39.35;100345.19;16103142;19;131020;-62
2024/01/06 01:38:50;;;;;;;3.58;0.80;;;;;;;18.42;39.41;100350.13;16104444;19;129612;-61
2024/01/06 01:44:12;;;;;;;2.38;0.70;;;;;;;18.40;39.18;100363.41;16109628;19;129461;-62
2024/01/06 01:49:34;;;;;;;2.33;0.82;;;;;;;18.38;38.97;100370.28;16109884;19;132840;-62
2024/01/06 01:54:57;;;;;;;2.35;1.08;;;;;;;18.34;39.12;100378.22;16105641;19;130648;-62
2024/01/06 02:00:19;;;;;;;11.27;1.67;;;;;;;18.32;38.66;100394.28;16103747;19;131001;-62
2024/01/06 02:05:41;;;;;;;3.20;1.30;;;;;;;18.30;38.74;100388.16;16109175;19;129694;-62
2024/01/06 02:11:05;;;;;;;3.05;1.10;;;;;;;18.28;38.86;100393.13;16104413;19;131848;-62
2024/01/06 02:16:26;;;;;;;4.32;1.60;;;;;;;18.24;38.54;100397.50;16110345;19;131989;-61
2024/01/06 02:21:55;;;;;;;2.30;1.10;;;;;;;18.23;38.68;100409.66;16102467;19;132273;-62
2024/01/06 02:27:17;;;;;;;4.22;1.65;;;;;;;18.21;38.33;100414.63;16105502;19;131035;-61
2024/01/06 02:32:38;;;;;;;2.63;1.10;;;;;;;18.19;38.33;100427.88;16107244;19;131229;-62
2024/01/06 02:38:00;;;;;;;5.20;1.20;;;;;;;18.17;38.63;100436.44;16103193;19;131676;-61
2024/01/06 02:43:23;;;;;;;3.60;1.20;;;;;;;18.15;38.10;100455.25;16109828;19;131107;-61
2024/01/06 02:48:45;;;;;;;3.80;1.40;;;;;;;18.13;38.16;100454.66;16104498;19;130983;-61
2024/01/06 02:54:07;;;;;;;3.30;1.13;;;;;;;18.13;38.27;100463.78;16104869;19;129716;-61
2024/01/06 02:59:29;;;;;;;2.20;1.00;;;;;;;18.12;38.17;100466.84;16107281;19;129835;-61
2024/01/06 03:04:51;;;;;;;1.65;1.00;;;;;;;18.09;37.89;100470.94;16097472;19;130797;-61
2024/01/06 03:10:13;;;;;;;2.92;1.08;;;;;;;18.09;38.35;100473.69;16104562;19;131404;-61
2024/01/06 03:15:35;;;;;;;2.17;1.10;;;;;;;18.08;38.03;100476.72;16104355;19;130473;-61
2024/01/06 03:20:57;;;;;;;1.88;1.10;;;;;;;18.07;37.83;100483.34;16106196;19;129387;-62
2024/01/06 03:26:19;;;;;;;2.10;0.98;;;;;;;18.05;38.24;100489.16;16105172;19;131196;-62
2024/01/06 03:31:44;;;;;;;2.45;1.00;;;;;;;18.05;37.94;100497.47;16119547;19;130963;-62
2024/01/06 03:37:06;;;;;;;1.98;1.13;;;;;;;18.04;38.00;100497.69;16122634;19;131254;-63
2024/01/06 03:42:28;;;;;;;2.92;1.30;;;;;;;18.03;37.87;100501.56;16111763;19;131215;-62
2024/01/06 03:47:50;;;;;;;2.63;1.20;;;;;;;18.02;37.65;100505.44;16120007;19;130262;-62
2024/01/06 03:53:12;;;;;;;2.83;1.10;;;;;;;18.00;37.95;100513.97;16121309;19;130157;-62
2024/01/06 03:58:34;;;;;;;2.42;1.45;;;;;;;17.97;37.74;100514.50;16118745;19;130835;-62
2024/01/06 04:03:56;;;;;;;2.25;1.45;;;;;;;17.94;37.27;100520.53;16113410;19;130325;-62
2024/01/06 04:09:18;;;;;;;3.72;1.35;;;;;;;17.94;37.53;100534.38;16118029;19;130824;-62
2024/01/06 04:14:40;;;;;;;2.33;1.08;;;;;;;17.92;37.65;100533.78;16116571;19;131102;-62
2024/01/06 04:20:04;;;;;;;3.28;1.30;;;;;;;17.91;37.64;100543.16;16117318;19;130614;-62
2024/01/06 04:25:25;;;;;;;1.98;1.30;;;;;;;17.88;37.41;100543.66;16118414;19;129786;-62
2024/01/06 04:30:47;;;;;;;2.50;1.23;;;;;;;17.89;37.48;100548.09;16113493;19;131651;-62
2024/01/06 04:36:09;;;;;;;1.70;1.00;;;;;;;17.85;37.11;100554.13;16113884;19;134306;-61
2024/01/06 04:41:32;;;;;;;5.13;1.00;;;;;;;17.84;36.98;100559.94;16114302;19;129726;-61
2024/01/06 04:46:54;;;;;;;1.50;1.00;;;;;;;17.82;36.90;100571.25;16119364;19;129714;-63
2024/01/06 04:52:16;;;;;;;2.28;1.30;;;;;;;17.81;36.87;100574.25;16118557;19;130293;-62
2024/01/06 04:57:38;;;;;;;1.67;1.02;;;;;;;17.80;36.76;100581.72;16113511;19;129752;-62
2024/01/06 05:03:00;;;;;;;3.63;1.15;;;;;;;17.78;36.62;100586.66;16109872;19;130262;-62
2024/01/06 05:08:22;;;;;;;1.17;1.02;;;;;;;17.76;36.65;100597.13;16116242;19;129561;-61
2024/01/06 05:13:44;;;;;;;1.58;1.00;;;;;;;17.76;36.53;100607.38;16114144;19;129603;-63
2024/01/06 05:19:06;;;;;;;1.15;0.70;;;;;;;17.75;36.72;100606.53;16118156;19;129713;-62
2024/01/06 05:24:28;;;;;;;0.85;0.70;;;;;;;17.75;36.94;100612.06;16112300;19;129768;-61
2024/01/06 05:29:51;;;;;;;2.47;0.90;;;;;;;17.77;36.96;100620.13;16112847;19;131015;-61
2024/01/06 05:35:16;;;;;;;1.35;0.75;;;;;;;17.76;36.61;100630.34;16111337;19;131069;-62
2024/01/06 05:40:38;;;;;;;1.50;0.63;;;;;;;17.74;36.84;100626.97;16110898;19;130679;-62
2024/01/06 05:46:00;;;;;;;1.65;0.80;;;;;;;17.74;36.88;100634.44;16112281;19;129343;-62
2024/01/06 05:51:22;;;;;;;2.05;0.75;;;;;;;17.74;36.50;100642.75;16110566;19;131023;-62
2024/01/06 05:56:44;;;;;;;2.03;0.60;;;;;;;17.72;36.42;100656.00;16108392;19;131225;-62
2024/01/06 06:02:06;;;;;;;2.10;0.85;;;;;;;17.70;36.75;100659.00;16108650;19;130592;-61
2024/01/06 06:07:28;;;;;;;1.38;0.80;;;;;;;17.72;36.45;100667.91;16112315;19;130748;-61
2024/01/06 06:12:50;;;;;;;1.52;0.50;;;;;;;17.78;36.82;100679.91;16107668;19;130731;-61
2024/01/06 06:18:12;;;;;;;0.93;0.60;;;;;;;17.93;36.47;100682.13;16103428;19;129892;-61
2024/01/06 06:23:35;;;;;;;1.15;0.50;;;;;;;18.14;35.74;100686.97;16110572;19;135139;-61
2024/01/06 06:28:56;;;;;;;1.13;0.55;;;;;;;18.34;35.69;100696.72;16110394;19;132297;-62
2024/01/06 06:34:18;;;;;;;0.68;0.50;;;;;;;18.52;35.39;100709.53;16107048;19;129600;-61
2024/01/06 06:39:42;;;;;;;0.98;0.52;;;;;;;18.69;35.16;100719.78;16107026;19;130120;-61
2024/01/06 06:45:04;;;;;;;1.30;0.70;;;;;;;18.81;34.77;100723.28;16107357;19;130548;-62
2024/01/06 06:50:26;;;;;;;2.22;0.40;;;;;;;18.94;34.75;100736.00;16103978;19;131430;-62
2024/01/06 06:55:48;;;;;;;1.45;0.70;;;;;;;19.02;34.52;100741.09;16106598;19;130967;-62
2024/01/06 07:01:10;;;;;;;2.35;0.52;;;;;;;19.05;34.83;100746.13;16104946;19;131395;-67
2024/01/06 07:06:32;;;;;;;1.05;0.60;;;;;;;19.03;34.91;100753.88;16121577;19;130239;-70
2024/01/06 07:11:54;;;;;;;2.30;0.50;;;;;;;19.07;34.83;100760.59;16114827;19;132575;-73
2024/01/06 07:17:16;;;;;;;1.45;0.60;;;;;;;19.16;34.64;100768.47;16119780;19;130243;-70
2024/01/06 07:22:38;;;;;;;1.80;0.57;;;;;;;19.24;34.55;100764.47;16119862;19;129883;-72
2024/01/06 07:28:00;;;;;;;1.10;0.50;;;;;;;19.28;34.40;100771.16;16120196;19;130987;-61
2024/01/06 07:33:22;;;;;;;4.07;0.40;;;;;;;19.27;34.24;100781.44;16119760;19;129967;-67
2024/01/06 07:38:45;;;;;;;1.08;0.40;;;;;;;19.27;34.55;100791.66;16124389;19;129832;-77
2024/01/06 07:44:07;;;;;;;2.80;0.70;;;;;;;19.38;34.54;100807.41;16121133;19;129862;-73
2024/01/06 07:49:29;;;;;;;1.45;0.30;;;;;;;19.47;34.70;100808.63;16125923;19;133544;-72
2024/01/06 07:54:51;;;;;;;3.42;0.70;;;;;;;19.61;34.43;100819.38;16120725;19;129863;-74
2024/01/06 08:00:14;;;;;;;4.63;0.45;;;;;;;19.69;34.71;100833.63;16120142;19;131284;-75
2024/01/06 08:05:37;;;;;;;2.22;0.60;;;;;;;19.78;34.34;100842.38;16120701;19;132134;-68
2024/01/06 08:10:59;;;;;;;4.25;0.95;;;;;;;19.87;34.40;100851.09;16126736;19;129830;-77
2024/01/06 08:16:21;;;;;;;0.52;0.30;;;;;;;20.06;33.97;100864.72;16115441;19;130503;-73
2024/01/06 08:21:44;;;;;;;2.95;0.40;;;;;;;20.24;34.07;100860.78;16115654;19;130618;-71
2024/01/06 08:27:06;;;;;;;1.98;0.40;;;;;;;20.42;33.45;100877.09;16118504;19;130791;-74
2024/01/06 08:32:28;;;;;;;0.90;0.47;;;;;;;20.56;33.66;100880.31;16116537;19;130976;-75
2024/01/06 08:37:50;;;;;;;2.10;0.40;;;;;;;20.65;33.41;100893.75;16113934;19;130701;-69
2024/01/06 08:43:12;;;;;;;0.82;0.38;;;;;;;20.68;33.08;100896.00;16119519;19;129475;-70
2024/01/06 08:48:34;;;;;;;0.70;0.52;;;;;;;20.70;33.14;100910.47;16115110;19;129906;-74
2024/01/06 08:53:57;;;;;;;2.58;0.47;;;;;;;20.72;32.89;100917.47;16120289;19;129529;-70
2024/01/06 08:59:20;;;;;;;1.38;0.40;;;;;;;20.73;33.23;100919.16;16115363;19;131070;-72
2024/01/06 09:04:42;;;;;;;1.10;0.47;;;;;;;20.76;32.86;100940.06;16106758;19;129654;-60
2024/01/06 09:10:04;;;;;;;2.60;0.82;;;;;;;20.72;33.17;100938.84;16103814;19;131973;-60
2024/01/06 09:15:26;;;;;;;10.95;0.70;;;;;;;20.65;33.14;100949.34;16107344;19;130221;-60
2024/01/06 09:20:48;;;;;;;2.85;0.52;;;;;;;20.56;32.68;100958.13;16098210;19;130281;-60
2024/01/06 09:26:10;;;;;;;4.78;0.60;;;;;;;20.48;33.32;100969.72;16107943;19;130847;-60
2024/01/06 09:31:32;;;;;;;4.75;0.88;;;;;;;20.39;32.74;100971.25;16100138;19;130905;-59
2024/01/06 09:36:54;;;;;;;4.75;0.60;;;;;;;20.33;33.62;100980.59;16103071;19;134879;-61
2024/01/06 09:42:17;;;;;;;8.50;1.20;;;;;;;20.23;33.85;100996.03;16105740;19;129988;-59
2024/01/06 09:47:40;;;;;;;1.80;0.50;;;;;;;20.15;34.03;101002.03;16104921;19;130815;-60
2024/01/06 09:53:05;;;;;;;3.00;0.85;;;;;;;20.09;34.26;101009.47;16095239;19;130621;-59
2024/01/06 09:58:29;;;;;;;4.87;0.83;;;;;;;20.05;34.07;101019.38;16103927;19;130739;-60
2024/01/06 10:03:51;;;;;;;3.13;0.82;;;;;;;19.98;33.98;101021.47;16100284;19;130796;-58
2024/01/06 10:09:14;;;;;;;4.65;1.13;;;;;;;19.95;33.36;101033.91;16103962;19;129665;-60
2024/01/06 10:14:36;;;;;;;3.55;0.63;;;;;;;19.91;33.16;101034.66;16103052;19;130086;-60
2024/01/06 10:19:59;;;;;;;2.38;0.70;;;;;;;19.88;33.10;101049.06;16102541;19;130164;-60
2024/01/06 10:25:23;;;;;;;1.80;0.55;;;;;;;19.85;32.77;101047.63;16098769;19;130069;-60
2024/01/06 10:30:45;;;;;;;3.05;0.60;;;;;;;19.82;32.52;101057.31;16105657;19;131241;-60
2024/01/06 10:36:08;;;;;;;3.70;0.93;;;;;;;19.81;32.48;101068.66;16092011;19;129685;-59
2024/01/06 10:41:30;;;;;;;6.63;0.90;;;;;;;19.76;32.24;101066.63;16094757;19;130733;-59
2024/01/06 10:46:53;;;;;;;2.55;0.45;;;;;;;19.75;32.21;101069.66;16106019;19;129566;-59
2024/01/06 10:52:16;;;;;;;3.80;0.50;;;;;;;19.75;31.97;101075.22;16101260;19;129723;-59
2024/01/06 10:57:38;;;;;;;2.17;0.45;;;;;;;19.72;32.35;101075.69;16101886;19;131747;-59
2024/01/06 11:03:02;;;;;;;1.27;0.50;;;;;;;19.68;32.57;101078.16;16103213;19;130999;-60
2024/01/06 11:08:26;;;;;;;1.52;0.40;;;;;;;19.64;32.60;101079.72;16094831;19;130846;-60
2024/01/06 11:13:48;;;;;;;1.40;0.52;;;;;;;19.60;32.57;101079.38;16094549;19;129409;-60
2024/01/06 11:19:34;;;;;;;11.32;0.70;;;;;;;19.55;32.91;101081.22;16096854;19;130855;-62
2024/01/06 11:25:13;;;;;;;2.33;0.60;;;;;;;19.52;32.89;101082.56;16099362;19;131738;-62
2024/01/06 11:30:35;;;;;;;2.58;0.40;;;;;;;19.49;32.50;101088.63;16101523;19;134130;-62
2024/01/06 11:36:01;;;;;;;2.47;0.50;;;;;;;19.49;32.47;101095.03;16097199;19;129656;-62
2024/01/06 11:41:49;;;;;;;1.50;0.63;;;;;;;19.50;32.67;101087.53;16096099;19;129602;-62
2024/01/06 11:47:12;;;;;;;1.23;0.52;;;;;;;19.48;32.32;101084.16;16099927;19;130228;-62
2024/01/06 11:52:34;;;;;;;3.33;0.70;;;;;;;19.49;32.16;101081.16;16115843;19;135075;-61
2024/01/06 11:57:57;;;;;;;2.35;0.70;;;;;;;19.53;32.04;101090.63;16108691;19;129284;-62
2024/01/06 12:03:19;;;;;;;2.13;0.57;;;;;;;19.60;32.06;101090.50;16112381;19;130211;-62
2024/01/06 12:08:41;;;;;;;3.17;0.50;;;;;;;19.68;31.97;101086.47;16111967;19;129615;-62
2024/01/06 12:14:03;;;;;;;0.98;0.45;;;;;;;19.81;31.96;101085.31;16108555;19;129591;-61
2024/01/06 12:19:25;;;;;;;2.72;0.60;;;;;;;19.93;31.64;101094.44;16103937;19;131284;-62
2024/01/06 12:24:50;;;;;;;3.03;0.60;;;;;;;20.04;31.47;101089.06;16112296;19;129656;-62
2024/01/06 12:30:18;;;;;;;2.03;0.65;;;;;;;20.11;31.91;101100.84;16114371;19;130737;-62
2024/01/06 12:35:42;;;;;;;2.08;0.52;;;;;;;20.15;31.80;101102.03;16107980;19;130735;-62
2024/01/06 12:41:04;;;;;;;1.30;0.50;;;;;;;20.16;31.52;101100.94;16106520;19;129787;-63
2024/01/06 12:46:27;;;;;;;2.00;0.70;;;;;;;20.13;31.39;101098.66;16108285;19;130025;-62
2024/01/06 12:51:50;;;;;;;1.52;0.63;;;;;;;20.06;31.29;101092.44;16109114;19;129409;-62
2024/01/06 12:57:12;;;;;;;2.50;0.73;;;;;;;20.02;31.80;101094.03;16112605;19;129757;-62
2024/01/06 13:02:34;;;;;;;4.10;0.93;;;;;;;19.97;31.77;101090.03;16112557;19;131495;-61
2024/01/06 13:07:57;;;;;;;4.82;0.90;;;;;;;19.93;31.71;101099.97;16110585;19;129691;-63
2024/01/06 13:13:19;;;;;;;4.55;0.90;;;;;;;19.86;31.90;101109.56;16107785;19;130751;-62
2024/01/06 13:18:41;;;;;;;3.38;0.90;;;;;;;19.75;31.97;101120.47;16102974;19;130199;-63
2024/01/06 13:24:04;;;;;;;6.80;0.93;;;;;;;19.66;31.97;101116.41;16103851;19;130101;-63
2024/01/06 13:29:26;;;;;;;6.32;1.10;;;;;;;19.64;32.01;101122.22;16107472;19;131357;-65
2024/01/06 13:34:54;;;;;;;5.18;1.08;;;;;;;19.65;32.03;101132.22;16103113;19;130434;-64
2024/01/06 13:40:19;;;;;;;3.22;0.80;;;;;;;19.75;31.70;101136.28;16107160;19;130565;-65
2024/01/06 13:45:48;;;;;;;2.63;0.85;;;;;;;19.88;31.78;101138.75;16100810;19;129561;-65
2024/01/06 13:51:10;;;;;;;3.67;0.70;;;;;;;20.06;31.83;101145.22;16100333;19;131347;-64
2024/01/06 13:56:32;;;;;;;3.55;0.90;;;;;;;20.22;31.43;101151.88;16106924;19;130760;-63
2024/01/06 14:01:54;;;;;;;4.03;0.77;;;;;;;20.38;31.01;101152.97;16105844;19;130468;-63
2024/01/06 14:07:19;;;;;;;1.05;0.57;;;;;;;20.46;31.08;101158.09;16107583;19;129610;-64
2024/01/06 14:12:41;;;;;;;3.50;0.97;;;;;;;20.52;30.91;101162.66;16101502;19;130116;-63
2024/01/06 14:18:04;;;;;;;3.92;0.85;;;;;;;20.54;30.51;101160.47;16102196;19;131085;-64
2024/01/06 14:23:29;;;;;;;2.53;1.00;;;;;;;20.53;30.57;101175.44;16107114;19;131063;-64
2024/01/06 14:28:51;;;;;;;1.83;0.90;;;;;;;20.46;30.78;101174.75;16106050;19;129692;-64
2024/01/06 14:34:13;;;;;;;2.17;0.88;;;;;;;20.39;30.61;101185.22;16104978;19;129802;-63
2024/01/06 14:39:36;;;;;;;3.80;0.90;;;;;;;20.32;30.52;101190.06;16105278;19;130313;-64
2024/01/06 14:45:01;;;;;;;2.00;0.98;;;;;;;20.23;30.74;101198.00;16096038;19;129529;-63
2024/01/06 14:50:23;;;;;;;3.13;0.93;;;;;;;20.13;30.77;101207.81;16098370;19;130598;-64
2024/01/06 14:55:45;;;;;;;3.83;1.00;;;;;;;20.05;30.50;101212.97;16101113;19;131450;-63
2024/01/06 15:01:07;;;;;;;0.80;0.70;;;;;;;19.96;30.73;101220.81;16093089;19;131030;-63
2024/01/06 15:06:29;;;;;;;1.38;0.93;;;;;;;19.86;30.53;101228.94;16092244;19;129633;-63
2024/01/06 15:11:51;;;;;;;3.08;1.00;;;;;;;19.75;30.55;101241.75;16094519;19;131794;-63
2024/01/06 15:17:13;;;;;;;3.08;1.00;;;;;;;19.65;30.99;101245.16;16093805;19;129588;-62
2024/01/06 15:22:35;;;;;;;1.38;0.90;;;;;;;19.63;30.71;101248.19;16099656;19;130678;-63
2024/01/06 15:28:01;;;;;;;0.85;0.65;;;;;;;19.76;30.53;101262.88;16114488;19;129464;-63
2024/01/06 15:33:23;;;;;;;1.45;0.70;;;;;;;19.97;30.72;101261.38;16113434;19;130738;-63
2024/01/06 15:38:46;;;;;;;2.38;0.98;;;;;;;20.20;30.54;101266.00;16111703;19;129262;-62
2024/01/06 15:44:08;;;;;;;1.52;0.90;;;;;;;20.41;30.24;101267.22;16115249;19;130153;-63
2024/01/06 15:49:30;;;;;;;2.20;0.90;;;;;;;20.62;30.26;101275.91;16114600;19;130514;-63
2024/01/06 15:54:53;;;;;;;1.67;0.75;;;;;;;20.72;30.11;101280.81;16113204;19;129937;-63
2024/01/06 16:00:17;;;;;;;1.20;0.80;;;;;;;20.75;29.69;101277.53;16113691;19;129818;-63
2024/01/06 16:05:39;;;;;;;2.17;0.82;;;;;;;20.74;29.59;101282.25;16112433;19;129730;-62
2024/01/06 16:11:01;;;;;;;3.90;1.08;;;;;;;20.68;29.67;101294.38;16103401;19;129389;-63
2024/01/06 16:16:28;;;;;;;1.77;0.90;;;;;;;20.62;29.39;101297.31;16106814;19;130977;-63
2024/01/06 16:21:50;;;;;;;2.20;0.80;;;;;;;20.51;29.48;101305.47;16109938;19;130630;-62
2024/01/06 16:27:23;;;;;;;2.20;0.80;;;;;;;20.39;29.78;101311.09;16108826;19;130455;-63
2024/01/06 16:32:47;;;;;;;1.30;0.70;;;;;;;20.31;29.94;101310.66;16109208;19;130145;-63
2024/01/06 16:38:09;;;;;;;1.55;0.70;;;;;;;20.22;29.60;101318.56;16109674;19;131114;-63
2024/01/06 16:43:37;;;;;;;0.80;0.55;;;;;;;20.12;30.14;101327.50;16112244;19;129890;-63
2024/01/06 16:48:59;;;;;;;1.15;1.00;;;;;;;20.00;29.63;101333.09;16109771;19;129520;-63
2024/01/06 16:54:21;;;;;;;1.10;0.70;;;;;;;19.88;29.54;101330.34;16111572;19;129660;-63
2024/01/06 16:59:43;;;;;;;4.20;1.20;;;;;;;19.76;29.33;101333.13;16099215;19;132939;-57
2024/01/06 17:05:08;;;;;;;2.35;1.08;;;;;;;19.47;29.00;101329.41;16105035;19;131555;-56
2024/01/06 17:10:31;;;;;;;3.28;1.27;;;;;;;19.36;29.13;101340.28;16110015;19;131037;-59
2024/01/06 17:15:52;;;;;;;3.20;1.10;;;;;;;19.30;29.38;101344.03;16110113;19;131475;-59
2024/01/06 17:21:15;;;;;;;1.55;0.93;;;;;;;19.32;29.49;101358.47;16113690;19;133588;-60
2024/01/06 17:26:37;;;;;;;5.40;1.30;;;;;;;19.45;29.16;101346.31;16113592;19;129625;-59
2024/01/06 17:31:59;;;;;;;2.58;1.30;;;;;;;19.67;28.94;101348.47;16114457;19;131072;-59
2024/01/06 17:37:22;;;;;;;1.98;0.98;;;;;;;19.97;28.95;101356.63;16110738;19;130634;-59
2024/01/06 17:42:44;;;;;;;2.25;1.08;;;;;;;20.36;29.08;101352.44;16104752;19;128925;-57
2024/01/06 17:48:07;;;;;;;2.38;1.00;;;;;;;20.71;29.03;101360.63;16108465;19;129411;-62
2024/01/06 17:53:29;;;;;;;5.07;1.23;;;;;;;20.99;28.84;101366.41;16110224;19;129489;-61
2024/01/06 17:58:52;;;;;;;8.90;1.40;;;;;;;21.09;29.49;101376.88;16103798;19;131049;-61
2024/01/06 18:04:14;;;;;;;3.50;0.98;;;;;;;21.09;29.42;101383.25;16110312;19;130810;-62
2024/01/06 18:09:37;;;;;;;6.00;1.45;;;;;;;21.08;29.11;101389.09;16100644;19;129761;-62
2024/01/06 18:14:59;;;;;;;5.97;1.20;;;;;;;21.02;29.51;101399.28;16100923;19;129816;-62
2024/01/06 18:20:21;;;;;;;11.35;1.80;;;;;;;20.94;29.34;101402.47;16103828;19;129645;-62
2024/01/06 18:25:43;;;;;;;4.45;1.27;;;;;;;20.88;29.32;101413.50;16101284;19;130699;-63
2024/01/06 18:31:05;;;;;;;3.65;1.55;;;;;;;20.83;29.73;101409.78;16107282;19;129775;-62
2024/01/06 18:36:27;;;;;;;3.35;1.08;;;;;;;20.77;29.52;101411.63;16101749;19;129662;-62
2024/01/06 18:41:50;;;;;;;9.85;1.40;;;;;;;20.70;29.95;101420.09;16103858;19;129785;-74
2024/01/06 18:47:14;;;;;;;12.43;1.88;;;;;;;20.56;29.65;101419.53;16110910;19;130294;-68
2024/01/06 18:52:37;;;;;;;24.73;2.15;;;;;;;20.48;29.93;101422.72;16106520;19;131636;-69
2024/01/06 18:58:00;;;;;;;5.05;1.45;;;;;;;20.40;30.31;101420.31;16107842;19;129644;-66
2024/01/06 19:03:22;;;;;;;9.75;1.70;;;;;;;20.33;30.07;101422.38;16119520;19;129660;-66
2024/01/06 19:08:44;;;;;;;27.85;2.03;;;;;;;20.27;30.29;101421.44;16119627;19;130060;-71
2024/01/06 19:14:06;;;;;;;18.65;2.30;;;;;;;20.27;29.62;101427.84;16116031;19;131059;-60
2024/01/06 19:19:28;;;;;;;11.68;2.22;;;;;;;20.38;29.72;101428.88;16120037;19;131062;-61
2024/01/06 19:24:51;;;;;;;12.20;1.85;;;;;;;20.59;29.79;101430.16;16120246;19;130829;-62
2024/01/06 19:30:15;;;;;;;9.70;1.50;;;;;;;20.86;29.72;101435.16;16117778;19;131712;-64
2024/01/06 19:35:39;;;;;;;19.73;1.60;;;;;;;21.10;29.49;101445.31;16116728;19;129724;-64
2024/01/06 19:41:00;;;;;;;14.52;1.98;;;;;;;21.21;29.73;101452.75;16104106;19;131220;-64
2024/01/06 19:46:22;;;;;;;9.90;1.60;;;;;;;21.25;29.78;101453.09;16109589;19;130667;-65
2024/01/06 19:51:44;;;;;;;7.38;1.42;;;;;;;21.26;29.91;101457.56;16116607;19;130435;-64
2024/01/06 19:57:07;;;;;;;8.85;1.90;;;;;;;21.22;29.91;101460.84;16113061;19;131623;-65
2024/01/06 20:02:29;;;;;;;12.45;1.70;;;;;;;21.17;30.18;101463.53;16111609;19;131917;-65
2024/01/06 20:07:51;;;;;;;8.63;1.90;;;;;;;21.07;29.80;101460.56;16110495;19;130763;-65
2024/01/06 20:13:13;;;;;;;17.25;2.55;;;;;;;20.98;30.12;101464.84;16095953;19;131178;-65
2024/01/06 20:18:36;;;;;;;18.33;1.92;;;;;;;21.00;30.24;101468.22;16108657;19;132659;-67
2024/01/06 20:23:59;;;;;;;19.60;2.30;;;;;;;21.03;29.87;101479.69;16111038;19;129688;-67
2024/01/06 20:29:21;;;;;;;17.17;2.42;;;;;;;21.05;29.88;101471.94;16112498;19;129736;-66
2024/01/06 20:34:44;;;;;;;11.95;1.80;;;;;;;21.08;30.33;101490.06;16112680;19;129940;-67
2024/01/06 20:40:09;;;;;;;18.10;2.38;;;;;;;21.08;30.20;101486.47;16109029;19;131636;-64
2024/01/06 20:45:31;;;;;;;20.13;2.20;;;;;;;21.10;30.12;101485.09;16111945;19;131299;-66
2024/01/06 20:50:53;;;;;;;17.48;2.10;;;;;;;21.21;29.52;101481.41;16115407;19;129896;-68
2024/01/06 20:56:16;;;;;;;17.13;2.10;;;;;;;21.36;29.58;101483.63;16109044;19;130686;-63
2024/01/06 21:01:38;;;;;;;17.00;2.30;;;;;;;21.54;29.40;101480.91;16108838;19;131156;-64
2024/01/06 21:07:00;;;;;;;10.82;1.65;;;;;;;21.63;29.15;101487.72;16108445;19;129536;-64
2024/01/06 21:12:22;;;;;;;9.27;1.25;;;;;;;21.70;28.83;101479.19;16109815;19;129373;-63
2024/01/06 21:17:44;;;;;;;5.03;1.70;;;;;;;21.67;28.97;101484.19;16109392;19;129619;-63
2024/01/06 21:23:06;;;;;;;5.35;1.45;;;;;;;21.64;29.24;101483.84;16112118;19;130476;-63
2024/01/06 21:28:28;;;;;;;6.85;1.80;;;;;;;21.52;28.92;101476.44;16110573;19;130870;-63
2024/01/06 21:33:50;;;;;;;7.15;1.80;;;;;;;21.41;29.07;101480.09;16106394;19;130933;-63
2024/01/06 21:39:13;;;;;;;8.38;1.50;;;;;;;21.27;29.03;101479.56;16106668;19;129893;-63
2024/01/06 21:44:35;;;;;;;3.83;1.23;;;;;;;21.12;29.21;101488.47;16106481;19;131859;-63
2024/01/06 21:49:57;;;;;;;5.03;1.73;;;;;;;21.00;29.60;101491.31;16105173;19;129983;-63
2024/01/06 21:55:22;;;;;;;10.30;1.95;;;;;;;20.87;29.31;101489.69;16102872;19;130563;-63
2024/01/06 22:00:44;;;;;;;7.88;1.52;;;;;;;20.81;29.34;101492.63;16103626;19;131113;-63
2024/01/06 22:06:06;;;;;;;10.95;1.65;;;;;;;20.70;29.30;101495.16;16101826;19;131862;-63
2024/01/06 22:11:28;;;;;;;5.53;1.75;;;;;;;20.62;29.40;101494.69;16104094;19;130640;-67
2024/01/06 22:16:50;;;;;;;6.22;2.03;;;;;;;20.49;29.35;101502.22;16101660;19;131176;-63
2024/01/06 22:22:12;;;;;;;4.22;1.45;;;;;;;20.38;29.47;101505.88;16105168;19;131606;-63
2024/01/06 22:27:34;;;;;;;3.33;1.55;;;;;;;20.25;29.43;101516.16;16103946;19;130631;-63
2024/01/06 22:32:56;;;;;;;4.68;1.50;;;;;;;20.16;29.83;101520.41;16098665;19;130780;-63
2024/01/06 22:38:18;;;;;;;5.55;1.90;;;;;;;20.05;29.90;101526.81;16105317;19;131832;-63
2024/01/06 22:43:41;;;;;;;9.82;1.70;;;;;;;19.95;29.63;101525.41;16102670;19;130768;-64
2024/01/06 22:49:03;;;;;;;4.68;1.85;;;;;;;19.88;29.79;101529.44;16099843;19;131033;-63
2024/01/06 22:54:25;;;;;;;3.85;1.63;;;;;;;19.81;30.00;101533.13;16099640;19;130251;-63
2024/01/06 22:59:47;;;;;;;3.95;1.45;;;;;;;19.76;29.81;101543.28;16100190;19;129495;-63
2024/01/06 23:05:09;;;;;;;2.72;1.55;;;;;;;19.68;29.70;101539.78;16100608;19;131167;-63
2024/01/06 23:10:31;;;;;;;2.40;1.58;;;;;;;19.60;29.97;101548.44;16094970;19;129988;-63
2024/01/06 23:15:55;;;;;;;2.20;1.42;;;;;;;19.53;29.50;101556.03;16100828;19;130750;-63
2024/01/06 23:21:17;;;;;;;4.47;1.80;;;;;;;19.45;30.00;101548.03;16092200;19;131561;-63
2024/01/06 23:26:39;;;;;;;4.43;1.92;;;;;;;19.38;29.53;101548.97;16100744;19;129910;-63
2024/01/06 23:32:01;;;;;;;2.70;1.40;;;;;;;19.31;29.88;101556.56;16095291;19;131741;-63
2024/01/06 23:37:23;;;;;;;3.70;1.75;;;;;;;19.27;29.83;101562.78;16096405;19;129510;-63
2024/01/06 23:42:45;;;;;;;6.07;2.30;;;;;;;19.19;30.11;101570.34;16093933;19;129653;-63
2024/01/06 23:48:07;;;;;;;3.38;1.98;;;;;;;19.16;29.65;101572.75;16114461;19;129778;-64
2024/01/06 23:53:29;;;;;;;2.83;1.85;;;;;;;19.10;29.36;101579.22;16115052;19;130312;-63
2024/01/06 23:58:51;;;;;;;3.15;2.10;;;;;;;19.02;29.53;101572.91;16111628;19;131332;-63
